createdAt,value
2019-03-24T00:01:56.435Z,100201.14
2019-03-24T00:04:24.893Z,100194.20
2019-03-24T00:06:53.267Z,100192.42
2019-03-24T00:09:21.696Z,100192.87
2019-03-24T00:11:50.074Z,100198.34
2019-03-24T00:14:18.470Z,100196.52
2019-03-24T00:16:46.846Z,100198.25
2019-03-24T00:19:15.220Z,100196.93
2019-03-24T00:21:43.609Z,100197.47
2019-03-24T00:24:11.996Z,100186.57
2019-03-24T00:26:40.649Z,100192.31
2019-03-24T00:29:09.025Z,100194.91
2019-03-24T00:31:37.406Z,100195.78
2019-03-24T00:34:05.788Z,100187.02
2019-03-24T00:36:34.176Z,100176.20
2019-03-24T00:39:02.551Z,100178.77
2019-03-24T00:41:30.937Z,100173.97
2019-03-24T00:43:59.315Z,100171.32
2019-03-24T00:46:27.729Z,100172.16
2019-03-24T00:48:56.099Z,100167.36
2019-03-24T00:51:24.488Z,100164.30
2019-03-24T00:53:52.882Z,100158.47
2019-03-24T00:56:21.294Z,100159.02
2019-03-24T00:58:49.702Z,100162.61
2019-03-24T01:01:18.084Z,100164.80
2019-03-24T01:03:46.462Z,100167.89
2019-03-24T01:06:14.852Z,100165.80
2019-03-24T01:08:43.227Z,100160.59
2019-03-24T01:11:11.617Z,100156.08
2019-03-24T01:13:39.996Z,100150.78
2019-03-24T01:16:08.456Z,100150.38
2019-03-24T01:18:36.896Z,100142.45
2019-03-24T01:21:05.372Z,100149.55
2019-03-24T01:23:33.750Z,100153.11
2019-03-24T01:26:02.156Z,100150.09
2019-03-24T01:28:30.529Z,100154.60
2019-03-24T01:30:59.001Z,100151.58
2019-03-24T01:33:27.396Z,100146.84
2019-03-24T01:35:55.784Z,100151.34
2019-03-24T01:38:24.209Z,100155.31
2019-03-24T01:40:52.534Z,100147.00
2019-03-24T01:43:20.937Z,100152.75
2019-03-24T01:45:58.159Z,100149.70
2019-03-24T01:48:19.418Z,100150.19
2019-03-24T01:50:48.026Z,100148.87
2019-03-24T01:53:16.410Z,100147.55
2019-03-24T01:55:44.789Z,100149.33
2019-03-24T01:58:13.177Z,100150.19
2019-03-24T02:00:41.552Z,100147.05
2019-03-24T02:03:09.958Z,100145.36
2019-03-24T02:05:38.337Z,100139.29
2019-03-24T02:08:06.731Z,100136.64
2019-03-24T02:10:35.111Z,100137.14
2019-03-24T02:13:03.495Z,100136.27
2019-03-24T02:15:31.869Z,100132.30
2019-03-24T02:18:00.250Z,100139.38
2019-03-24T02:20:28.622Z,100129.75
2019-03-24T02:22:57.004Z,100128.97
2019-03-24T02:25:25.384Z,100124.54
2019-03-24T02:27:53.780Z,100125.45
2019-03-24T02:30:22.169Z,100127.64
2019-03-24T02:32:50.562Z,100124.22
2019-03-24T02:35:18.937Z,100124.22
2019-03-24T02:37:47.323Z,100124.67
2019-03-24T02:40:15.767Z,100116.73
2019-03-24T02:42:44.147Z,100114.50
2019-03-24T02:45:12.682Z,100113.27
2019-03-24T02:47:41.886Z,100114.18
2019-03-24T02:50:11.233Z,100107.20
2019-03-24T02:52:39.625Z,100099.27
2019-03-24T02:55:08.942Z,100105.88
2019-03-24T02:57:37.421Z,100103.77
2019-03-24T03:00:08.843Z,100103.77
2019-03-24T03:02:37.198Z,100109.92
2019-03-24T03:05:08.022Z,100107.66
2019-03-24T03:07:36.404Z,100105.55
2019-03-24T03:10:07.293Z,100102.08
2019-03-24T03:12:35.673Z,100104.72
2019-03-24T03:15:06.536Z,100108.28
2019-03-24T03:17:34.919Z,100099.98
2019-03-24T03:20:04.386Z,100099.52
2019-03-24T03:22:32.958Z,100093.37
2019-03-24T03:25:01.338Z,100098.66
2019-03-24T03:27:29.712Z,100096.55
2019-03-24T03:29:58.093Z,100098.25
2019-03-24T03:32:26.470Z,100099.11
2019-03-24T03:34:54.847Z,100094.86
2019-03-24T03:37:23.254Z,100092.59
2019-03-24T03:39:57.034Z,100092.67
2019-03-24T03:42:21.712Z,100090.48
2019-03-24T03:44:50.087Z,100090.48
2019-03-24T03:47:18.460Z,100086.06
2019-03-24T03:49:46.843Z,100087.30
2019-03-24T03:52:15.211Z,100079.91
2019-03-24T03:54:43.590Z,100080.86
2019-03-24T03:57:12.531Z,100078.22
2019-03-24T03:59:40.928Z,100080.37
2019-03-24T04:02:09.312Z,100086.60
2019-03-24T04:04:37.700Z,100082.27
2019-03-24T04:07:06.084Z,100080.45
2019-03-24T04:09:34.478Z,100081.40
2019-03-24T04:12:02.825Z,100081.03
2019-03-24T04:14:31.210Z,100084.13
2019-03-24T04:17:07.084Z,100083.67
2019-03-24T04:19:29.689Z,100080.16
2019-03-24T04:21:58.079Z,100079.70
2019-03-24T04:24:26.436Z,100075.73
2019-03-24T04:26:54.824Z,100065.16
2019-03-24T04:29:23.197Z,100065.22
2019-03-24T04:31:51.593Z,100061.74
2019-03-24T04:34:19.965Z,100063.89
2019-03-24T04:36:48.352Z,100060.87
2019-03-24T04:39:16.718Z,100061.25
2019-03-24T04:41:45.094Z,100053.90
2019-03-24T04:44:13.460Z,100052.08
2019-03-24T04:46:41.852Z,100057.00
2019-03-24T04:49:10.217Z,100057.45
2019-03-24T04:51:38.597Z,100055.67
2019-03-24T04:54:06.982Z,100057.45
2019-03-24T04:56:35.360Z,100059.27
2019-03-24T04:59:03.740Z,100064.93
2019-03-24T05:01:32.136Z,100060.09
2019-03-24T05:04:00.501Z,100061.91
2019-03-24T05:06:29.052Z,100064.61
2019-03-24T05:08:57.665Z,100050.78
2019-03-24T05:11:26.054Z,100050.78
2019-03-24T05:13:54.421Z,100055.35
2019-03-24T05:16:22.796Z,100057.63
2019-03-24T05:18:51.168Z,100050.55
2019-03-24T05:21:19.547Z,100061.59
2019-03-24T05:23:47.925Z,100057.63
2019-03-24T05:26:16.307Z,100054.61
2019-03-24T05:28:44.674Z,100057.63
2019-03-24T05:31:13.401Z,100053.74
2019-03-24T05:33:41.781Z,100052.88
2019-03-24T05:36:10.168Z,100053.74
2019-03-24T05:38:38.541Z,100053.28
2019-03-24T05:41:06.905Z,100046.19
2019-03-24T05:43:35.282Z,100050.23
2019-03-24T05:46:03.674Z,100053.74
2019-03-24T05:48:32.049Z,100055.52
2019-03-24T05:51:00.414Z,100047.22
2019-03-24T05:53:28.797Z,100049.45
2019-03-24T05:55:57.162Z,100043.25
2019-03-24T05:58:25.543Z,100046.81
2019-03-24T06:00:53.922Z,100040.20
2019-03-24T06:03:22.307Z,100042.84
2019-03-24T06:05:50.673Z,100045.44
2019-03-24T06:08:19.053Z,100044.95
2019-03-24T06:10:47.437Z,100042.39
2019-03-24T06:13:15.812Z,100043.71
2019-03-24T06:15:44.184Z,100042.84
2019-03-24T06:18:12.570Z,100052.50
2019-03-24T06:20:40.946Z,100052.96
2019-03-24T06:23:09.341Z,100052.96
2019-03-24T06:25:37.728Z,100052.96
2019-03-24T06:28:06.122Z,100053.38
2019-03-24T06:30:34.497Z,100051.64
2019-03-24T06:33:02.874Z,100054.74
2019-03-24T06:35:31.251Z,100046.77
2019-03-24T06:37:59.635Z,100053.83
2019-03-24T06:40:28.021Z,100048.62
2019-03-24T06:42:56.402Z,100054.69
2019-03-24T06:45:28.817Z,100050.73
2019-03-24T06:47:58.276Z,100049.41
2019-03-24T06:50:24.964Z,100053.74
2019-03-24T06:52:53.350Z,100051.47
2019-03-24T06:55:21.739Z,100040.78
2019-03-24T06:57:50.105Z,100048.83
2019-03-24T07:00:18.567Z,100047.13
2019-03-24T07:02:46.936Z,100045.44
2019-03-24T07:05:15.454Z,100048.00
2019-03-24T07:07:44.285Z,100046.67
2019-03-24T07:10:12.902Z,100045.27
2019-03-24T07:12:41.366Z,100044.33
2019-03-24T07:15:09.887Z,100050.84
2019-03-24T07:17:38.253Z,100047.66
2019-03-24T07:20:06.988Z,100050.77
2019-03-24T07:22:35.354Z,100043.78
2019-03-24T07:25:04.674Z,100040.59
2019-03-24T07:27:33.055Z,100038.49
2019-03-24T07:30:01.449Z,100041.51
2019-03-24T07:32:29.829Z,100040.19
2019-03-24T07:34:58.212Z,100035.39
2019-03-24T07:37:26.595Z,100030.94
2019-03-24T07:39:54.975Z,100032.17
2019-03-24T07:42:23.414Z,100037.86
2019-03-24T07:44:51.794Z,100034.77
2019-03-24T07:47:20.161Z,100040.42
2019-03-24T07:49:48.551Z,100032.87
2019-03-24T07:52:16.978Z,100035.14
2019-03-24T07:54:45.360Z,100026.66
2019-03-24T07:57:14.681Z,100028.91
2019-03-24T07:59:43.070Z,100021.30
2019-03-24T08:02:11.428Z,100022.16
2019-03-24T08:04:39.813Z,100021.75
2019-03-24T08:07:08.199Z,100023.48
2019-03-24T08:09:37.320Z,100023.31
2019-03-24T08:12:05.798Z,100018.02
2019-03-24T08:14:34.186Z,100019.25
2019-03-24T08:17:02.552Z,100016.61
2019-03-24T08:19:30.923Z,100006.90
2019-03-24T08:21:59.307Z,100006.90
2019-03-24T08:24:27.692Z,100011.69
2019-03-24T08:26:56.070Z,100013.42
2019-03-24T08:29:24.441Z,100004.16
2019-03-24T08:31:52.823Z,100004.54
2019-03-24T08:34:21.217Z,100005.77
2019-03-24T08:36:49.617Z,100002.76
2019-03-24T08:39:17.979Z,99996.52
2019-03-24T08:41:46.426Z,99991.32
2019-03-24T08:44:15.119Z,99989.22
2019-03-24T08:46:46.888Z,99984.80
2019-03-24T08:49:13.582Z,99988.22
2019-03-24T08:51:41.972Z,99987.07
2019-03-24T08:54:10.336Z,99985.58
2019-03-24T08:56:38.734Z,99986.03
2019-03-24T08:59:07.110Z,99979.34
2019-03-24T09:01:35.535Z,99975.00
2019-03-24T09:04:03.893Z,99970.48
2019-03-24T09:06:32.265Z,99966.52
2019-03-24T09:09:00.631Z,99973.13
2019-03-24T09:11:31.474Z,99972.64
2019-03-24T09:14:00.346Z,99973.50
2019-03-24T09:16:28.734Z,99980.97
2019-03-24T09:18:57.121Z,99983.98
2019-03-24T09:21:25.485Z,99977.01
2019-03-24T09:23:53.844Z,99979.16
2019-03-24T09:26:22.236Z,99986.72
2019-03-24T09:28:50.626Z,99987.09
2019-03-24T09:31:19.006Z,99986.72
2019-03-24T09:33:47.372Z,99990.23
2019-03-24T09:36:15.742Z,99988.81
2019-03-24T09:38:44.130Z,99990.83
2019-03-24T09:41:12.497Z,99989.42
2019-03-24T09:43:40.872Z,99986.69
2019-03-24T09:46:09.236Z,99991.52
2019-03-24T09:48:37.632Z,99993.21
2019-03-24T09:51:06.002Z,99991.89
2019-03-24T09:53:34.390Z,99991.80
2019-03-24T09:56:02.788Z,99986.05
2019-03-24T09:58:31.162Z,99988.61
2019-03-24T10:00:59.519Z,99990.16
2019-03-24T10:03:27.899Z,99987.89
2019-03-24T10:05:56.272Z,99998.52
2019-03-24T10:08:24.654Z,99990.03
2019-03-24T10:10:53.022Z,99992.99
2019-03-24T10:13:21.469Z,99997.64
2019-03-24T10:15:49.851Z,99995.45
2019-03-24T10:18:18.239Z,99993.59
2019-03-24T10:20:46.608Z,99994.82
2019-03-24T10:23:16.042Z,99995.41
2019-03-24T10:25:44.403Z,99994.82
2019-03-24T10:28:12.782Z,99992.95
2019-03-24T10:30:41.151Z,99992.03
2019-03-24T10:33:09.535Z,99994.95
2019-03-24T10:35:37.976Z,99993.08
2019-03-24T10:38:06.363Z,99997.83
2019-03-24T10:40:34.725Z,99993.86
2019-03-24T10:43:03.104Z,99998.28
2019-03-24T10:45:31.483Z,99991.39
2019-03-24T10:47:59.862Z,99991.39
2019-03-24T10:50:28.243Z,99988.02
2019-03-24T10:52:56.629Z,99992.36
2019-03-24T10:55:25.033Z,99995.09
2019-03-24T10:57:53.396Z,99990.66
2019-03-24T11:00:36.526Z,99987.83
2019-03-24T11:03:05.241Z,99986.05
2019-03-24T11:05:33.629Z,99988.24
2019-03-24T11:08:02.008Z,99981.84
2019-03-24T11:10:31.331Z,99985.85
2019-03-24T11:12:59.704Z,99983.70
2019-03-24T11:15:28.100Z,99986.01
2019-03-24T11:17:56.493Z,99978.19
2019-03-24T11:20:24.870Z,99973.53
2019-03-24T11:22:53.280Z,99973.47
2019-03-24T11:25:21.667Z,99972.25
2019-03-24T11:27:50.044Z,99963.75
2019-03-24T11:30:18.499Z,99956.75
2019-03-24T11:32:46.872Z,99950.93
2019-03-24T11:35:15.261Z,99945.60
2019-03-24T11:37:43.631Z,99941.87
2019-03-24T11:40:12.654Z,99936.97
2019-03-24T11:42:41.022Z,99935.64
2019-03-24T11:45:10.839Z,99929.64
2019-03-24T11:47:39.224Z,99923.56
2019-03-24T11:50:08.353Z,99930.44
2019-03-24T11:52:37.058Z,99924.46
2019-03-24T11:55:08.588Z,99918.40
2019-03-24T11:57:37.085Z,99922.95
2019-03-24T12:00:10.866Z,99915.08
2019-03-24T12:02:39.302Z,99911.30
2019-03-24T12:05:08.543Z,99915.27
2019-03-24T12:07:36.921Z,99913.37
2019-03-24T12:10:09.322Z,99905.61
2019-03-24T12:12:37.699Z,99906.73
2019-03-24T12:15:09.199Z,99906.06
2019-03-24T12:17:37.573Z,99904.38
2019-03-24T12:20:09.374Z,99905.80
2019-03-24T12:22:37.789Z,99901.42
2019-03-24T12:25:06.519Z,99897.45
2019-03-24T12:27:35.062Z,99890.36
2019-03-24T12:30:05.282Z,99882.88
2019-03-24T12:32:33.656Z,99885.43
2019-03-24T12:35:02.022Z,99888.19
2019-03-24T12:37:30.410Z,99893.69
2019-03-24T12:39:58.798Z,99887.16
2019-03-24T12:42:27.178Z,99879.78
2019-03-24T12:44:55.551Z,99877.59
2019-03-24T12:47:23.933Z,99878.72
2019-03-24T12:49:52.301Z,99877.80
2019-03-24T12:52:20.686Z,99875.52
2019-03-24T12:54:49.062Z,99869.85
2019-03-24T12:57:17.450Z,99864.55
2019-03-24T12:59:45.823Z,99867.56
2019-03-24T13:02:14.623Z,99858.30
2019-03-24T13:04:43.133Z,99866.64
2019-03-24T13:07:11.562Z,99867.56
2019-03-24T13:09:39.939Z,99867.56
2019-03-24T13:12:08.335Z,99863.23
2019-03-24T13:14:36.708Z,99861.05
2019-03-24T13:17:05.154Z,99853.55
2019-03-24T13:19:35.990Z,99855.38
2019-03-24T13:22:03.703Z,99846.47
2019-03-24T13:24:32.170Z,99861.44
2019-03-24T13:27:00.623Z,99857.93
2019-03-24T13:29:29.056Z,99860.48
2019-03-24T13:31:57.448Z,99856.50
2019-03-24T13:34:25.888Z,99844.95
2019-03-24T13:36:54.323Z,99847.14
2019-03-24T13:39:22.694Z,99850.25
2019-03-24T13:41:51.080Z,99854.22
2019-03-24T13:44:19.463Z,99857.37
2019-03-24T13:46:47.853Z,99855.64
2019-03-24T13:49:16.222Z,99849.52
2019-03-24T13:51:44.590Z,99843.83
2019-03-24T13:54:13.048Z,99848.19
2019-03-24T13:56:41.410Z,99842.96
2019-03-24T13:59:09.795Z,99836.73
2019-03-24T14:01:38.246Z,99831.44
2019-03-24T14:04:06.638Z,99821.77
2019-03-24T14:06:35.014Z,99826.70
2019-03-24T14:09:04.342Z,99822.27
2019-03-24T14:11:32.713Z,99830.77
2019-03-24T14:14:01.093Z,99834.19
2019-03-24T14:16:29.457Z,99836.73
2019-03-24T14:18:57.841Z,99827.47
2019-03-24T14:21:26.211Z,99832.77
2019-03-24T14:23:54.595Z,99822.92
2019-03-24T14:26:22.965Z,99826.50
2019-03-24T14:28:51.346Z,99822.44
2019-03-24T14:31:19.718Z,99825.94
2019-03-24T14:33:48.162Z,99828.23
2019-03-24T14:36:16.526Z,99828.33
2019-03-24T14:38:44.907Z,99813.26
2019-03-24T14:41:13.274Z,99817.13
2019-03-24T14:43:41.692Z,99816.00
2019-03-24T14:46:10.024Z,99816.11
2019-03-24T14:48:38.404Z,99818.75
2019-03-24T14:51:06.783Z,99818.75
2019-03-24T14:53:35.178Z,99819.69
2019-03-24T14:56:03.545Z,99818.19
2019-03-24T14:58:31.971Z,99827.73
2019-03-24T15:01:00.339Z,99821.11
2019-03-24T15:03:28.722Z,99803.78
2019-03-24T15:05:57.091Z,99808.16
2019-03-24T15:08:25.471Z,99816.47
2019-03-24T15:10:53.855Z,99806.73
2019-03-24T15:13:22.255Z,99813.26
2019-03-24T15:15:50.650Z,99820.64
2019-03-24T15:18:19.060Z,99814.02
2019-03-24T15:20:47.445Z,99822.33
2019-03-24T15:23:15.822Z,99815.70
2019-03-24T15:25:44.203Z,99816.83
2019-03-24T15:28:12.581Z,99803.02
2019-03-24T15:30:40.969Z,99813.05
2019-03-24T15:33:09.347Z,99787.41
2019-03-24T15:35:37.722Z,99804.14
2019-03-24T15:38:08.791Z,99800.06
2019-03-24T15:40:36.225Z,99785.98
2019-03-24T15:43:04.675Z,99783.33
2019-03-24T15:45:33.062Z,99788.06
2019-03-24T15:48:01.430Z,99781.80
2019-03-24T15:50:31.095Z,99782.16
2019-03-24T15:52:59.459Z,99795.81
2019-03-24T15:55:27.856Z,99786.44
2019-03-24T15:57:56.249Z,99786.80
2019-03-24T16:00:36.607Z,99790.67
2019-03-24T16:03:04.985Z,99790.67
2019-03-24T16:05:33.367Z,99783.68
2019-03-24T16:08:01.754Z,99795.34
2019-03-24T16:10:35.096Z,99793.53
2019-03-24T16:13:00.234Z,99793.53
2019-03-24T16:15:28.619Z,99789.19
2019-03-24T16:17:56.993Z,99786.90
2019-03-24T16:20:25.375Z,99784.15
2019-03-24T16:22:53.740Z,99786.99
2019-03-24T16:25:22.133Z,99775.06
2019-03-24T16:27:50.499Z,99772.39
2019-03-24T16:30:19.255Z,99781.81
2019-03-24T16:32:49.253Z,99771.66
2019-03-24T16:35:17.632Z,99766.11
2019-03-24T16:37:46.230Z,99774.08
2019-03-24T16:40:14.678Z,99770.77
2019-03-24T16:42:43.055Z,99775.05
2019-03-24T16:45:11.493Z,99780.05
2019-03-24T16:47:39.873Z,99777.16
2019-03-24T16:50:08.988Z,99771.69
2019-03-24T16:52:37.379Z,99781.91
2019-03-24T16:55:06.893Z,99780.94
2019-03-24T16:57:35.357Z,99783.73
2019-03-24T17:00:08.553Z,99779.98
2019-03-24T17:02:36.925Z,99782.06
2019-03-24T17:05:08.775Z,99777.07
2019-03-24T17:07:37.147Z,99776.98
2019-03-24T17:10:07.848Z,99779.45
2019-03-24T17:12:36.298Z,99777.84
2019-03-24T17:15:06.716Z,99783.34
2019-03-24T17:17:35.094Z,99782.23
2019-03-24T17:20:04.629Z,99784.59
2019-03-24T17:22:33.011Z,99779.38
2019-03-24T17:25:01.385Z,99777.80
2019-03-24T17:27:29.765Z,99782.70
2019-03-24T17:29:58.139Z,99780.16
2019-03-24T17:32:26.521Z,99777.61
2019-03-24T17:34:54.902Z,99780.73
2019-03-24T17:37:23.284Z,99772.52
2019-03-24T17:39:51.656Z,99775.54
2019-03-24T17:42:20.045Z,99779.16
2019-03-24T17:44:48.421Z,99775.38
2019-03-24T17:47:16.804Z,99773.77
2019-03-24T17:49:45.170Z,99787.58
2019-03-24T17:52:13.562Z,99779.27
2019-03-24T17:54:41.950Z,99785.23
2019-03-24T17:57:10.388Z,99789.77
2019-03-24T17:59:38.724Z,99793.84
2019-03-24T18:02:14.198Z,99793.95
2019-03-24T18:04:37.275Z,99792.26
2019-03-24T18:07:05.661Z,99798.13
2019-03-24T18:09:34.050Z,99798.13
2019-03-24T18:12:02.654Z,99799.15
2019-03-24T18:14:31.035Z,99795.67
2019-03-24T18:16:59.402Z,99803.22
2019-03-24T18:19:27.800Z,99803.13
2019-03-24T18:21:56.174Z,99805.31
2019-03-24T18:24:24.623Z,99797.92
2019-03-24T18:26:52.990Z,99808.52
2019-03-24T18:29:21.375Z,99802.56
2019-03-24T18:31:50.323Z,99808.36
2019-03-24T18:34:18.716Z,99803.16
2019-03-24T18:36:47.091Z,99808.16
2019-03-24T18:39:15.472Z,99807.80
2019-03-24T18:41:43.852Z,99803.42
2019-03-24T18:44:12.232Z,99800.41
2019-03-24T18:46:40.607Z,99797.76
2019-03-24T18:49:08.998Z,99797.76
2019-03-24T18:51:37.443Z,99802.86
2019-03-24T18:54:05.900Z,99805.61
2019-03-24T18:56:34.268Z,99803.82
2019-03-24T18:59:02.649Z,99799.95
2019-03-24T19:01:31.018Z,99797.30
2019-03-24T19:03:59.409Z,99796.07
2019-03-24T19:06:27.777Z,99798.84
2019-03-24T19:08:56.161Z,99802.92
2019-03-24T19:11:24.531Z,99796.30
2019-03-24T19:13:53.130Z,99802.45
2019-03-24T19:16:21.577Z,99797.16
2019-03-24T19:18:50.917Z,99802.92
2019-03-24T19:21:19.382Z,99793.84
2019-03-24T19:23:47.820Z,99793.84
2019-03-24T19:26:16.204Z,99787.23
2019-03-24T19:28:44.577Z,99782.13
2019-03-24T19:31:13.024Z,99784.77
2019-03-24T19:33:41.861Z,99788.84
2019-03-24T19:36:10.577Z,99786.76
2019-03-24T19:38:41.569Z,99783.72
2019-03-24T19:41:09.944Z,99775.41
2019-03-24T19:43:39.837Z,99778.42
2019-03-24T19:46:08.284Z,99776.62
2019-03-24T19:48:36.724Z,99779.28
2019-03-24T19:51:07.054Z,99792.61
2019-03-24T19:53:35.594Z,99785.23
2019-03-24T19:56:03.969Z,99787.98
2019-03-24T19:58:32.339Z,99787.22
2019-03-24T20:01:00.723Z,99786.85
2019-03-24T20:03:29.102Z,99781.45
2019-03-24T20:05:57.482Z,99782.02
2019-03-24T20:08:25.859Z,99786.55
2019-03-24T20:10:54.235Z,99778.24
2019-03-24T20:13:22.602Z,99779.10
2019-03-24T20:15:51.241Z,99784.95
2019-03-24T20:18:19.628Z,99785.81
2019-03-24T20:20:48.014Z,99783.63
2019-03-24T20:23:16.387Z,99778.34
2019-03-24T20:25:44.778Z,99787.97
2019-03-24T20:28:13.151Z,99776.16
2019-03-24T20:30:41.541Z,99775.39
2019-03-24T20:33:09.922Z,99779.36
2019-03-24T20:35:38.304Z,99777.21
2019-03-24T20:38:06.689Z,99763.88
2019-03-24T20:40:35.063Z,99764.44
2019-03-24T20:43:03.445Z,99771.16
2019-03-24T20:45:31.823Z,99768.41
2019-03-24T20:48:00.208Z,99765.00
2019-03-24T20:50:28.579Z,99770.69
2019-03-24T20:53:03.999Z,99765.55
2019-03-24T20:55:27.082Z,99767.84
2019-03-24T20:57:55.463Z,99772.27
2019-03-24T21:00:32.159Z,99769.62
2019-03-24T21:03:00.548Z,99767.94
2019-03-24T21:05:28.990Z,99763.56
2019-03-24T21:07:57.386Z,99760.92
2019-03-24T21:10:25.762Z,99760.09
2019-03-24T21:12:54.144Z,99754.90
2019-03-24T21:15:22.525Z,99766.41
2019-03-24T21:17:52.018Z,99769.52
2019-03-24T21:20:20.395Z,99766.70
2019-03-24T21:22:48.785Z,99763.09
2019-03-24T21:25:17.155Z,99765.17
2019-03-24T21:27:45.570Z,99764.34
2019-03-24T21:30:15.076Z,99763.58
2019-03-24T21:32:43.480Z,99766.48
2019-03-24T21:35:11.968Z,99771.03
2019-03-24T21:37:40.386Z,99768.45
2019-03-24T21:40:09.135Z,99760.61
2019-03-24T21:42:37.547Z,99764.77
2019-03-24T21:45:09.352Z,99764.77
2019-03-24T21:47:37.752Z,99764.50
2019-03-24T21:50:07.295Z,99761.55
2019-03-24T21:52:35.700Z,99747.09
2019-03-24T21:55:04.668Z,99752.02
2019-03-24T21:57:33.069Z,99748.05
2019-03-24T22:00:01.475Z,99750.76
2019-03-24T22:02:29.864Z,99750.02
2019-03-24T22:04:58.263Z,99751.88
2019-03-24T22:07:26.661Z,99748.45
2019-03-24T22:09:55.071Z,99749.87
2019-03-24T22:12:23.476Z,99745.54
2019-03-24T22:14:52.382Z,99744.68
2019-03-24T22:17:20.764Z,99739.09
2019-03-24T22:19:49.166Z,99734.30
2019-03-24T22:22:17.546Z,99737.86
2019-03-24T22:24:45.949Z,99734.84
2019-03-24T22:27:14.331Z,99737.09
2019-03-24T22:29:42.797Z,99738.05
2019-03-24T22:32:11.162Z,99733.31
2019-03-24T22:34:39.551Z,99736.42
2019-03-24T22:37:15.724Z,99732.09
2019-03-24T22:39:38.013Z,99731.22
2019-03-24T22:42:06.377Z,99724.71
2019-03-24T22:44:34.749Z,99723.48
2019-03-24T22:47:03.120Z,99718.66
2019-03-24T22:49:31.494Z,99718.28
2019-03-24T22:52:07.321Z,99716.10
2019-03-24T22:54:29.974Z,99715.37
2019-03-24T22:56:58.403Z,99715.83
2019-03-24T22:59:26.792Z,99705.34
2019-03-24T23:01:55.231Z,99701.94
2019-03-24T23:04:23.618Z,99705.05
2019-03-24T23:06:52.633Z,99698.89
2019-03-24T23:09:21.035Z,99692.78
2019-03-24T23:11:49.416Z,99685.77
2019-03-24T23:14:17.795Z,99682.85
2019-03-24T23:16:46.163Z,99685.03
2019-03-24T23:19:14.544Z,99683.31
2019-03-24T23:21:42.911Z,99676.80
2019-03-24T23:24:15.595Z,99680.77
2019-03-24T23:26:41.380Z,99677.36
2019-03-24T23:29:09.754Z,99670.84
2019-03-24T23:31:38.138Z,99677.08
2019-03-24T23:34:06.497Z,99668.29
2019-03-24T23:36:34.871Z,99665.28
2019-03-24T23:39:03.249Z,99668.39
2019-03-24T23:41:31.613Z,99666.30
2019-03-24T23:43:59.977Z,99662.06
2019-03-24T23:46:28.358Z,99661.11
2019-03-24T23:48:56.723Z,99649.77
2019-03-24T23:51:25.160Z,99648.44
2019-03-24T23:53:53.530Z,99644.58
2019-03-24T23:56:21.894Z,99635.05
2019-03-24T23:58:50.263Z,99631.91
